Kailua, HI (96734)

5:44 AM HST on February 11, 2016 (GMT -1000)
Kailua Beach | | Change Station
CLOSE
Current Station
Personal Weather Station
Location: Kailua, HI
Elevation: 10 ft
Nearby Weather Stations

Elev 10 ft 21.40 °N, 157.73 °W | Updated 10 minutes ago

Scattered Clouds
Scattered Clouds
65.6 °F
Feels Like 65.6 °F
N
0.0
Wind Variable Wind from SW
Gusts 1.0 mph

Today
High -- | Low -- °F
--% Chance of Precip.
Yesterday
High -- | Low -- °F
Precip. -- in
Pressure 30.01 in
Visibility 7.0 miles
Clouds Scattered Clouds 3200 ft
Scattered Clouds 3900 ft
Dew Point 63 °F
Humidity 91%
Rainfall 0.00 in
Snow Depth Not available.
7:04 AM 6:26 PM
Waxing Crescent, 12% visible
METAR PHNG 111457Z 00000KT 7SM SCT032 SCT039 20/18 A3003 RMK AO2 SLP162 T02000178 53002 $
Pressure 30.01 in
Visibility 7.0 miles
Clouds Scattered Clouds 3200 ft
Scattered Clouds 3900 ft
Dew Point 63 °F
Humidity 91%
Rainfall 0.00 in
Snow Depth Not available.
7:04 AM 6:26 PM
Waxing Crescent, 12% visible
METAR PHNG 111457Z 00000KT 7SM SCT032 SCT039 20/18 A3003 RMK AO2 SLP162 T02000178 53002 $

10-Day Weather Forecast

Almanac

Astronomy

Feb. 11, 2016 Rise Set
Actual Time
Civil Twilight
Nautical Twilight
Astronomical Twilight
Moon
Length of Visible Light
Length of Day
Tomorrow will be .
, % of the Moon is Illuminated

Today's Extremes

State Highs State Lows

Community

WunderPhotos

Upload Photos

1,892,081 photos uploaded!

WunderBlog® & News

Nearby

Air Quality

  Air Quality AQ Index Pollutant
Not available.

Snow Depth

Station Depth Elevation

Earthquake Activity

City Distance Mag. Time & Date
Minimum magnitude displayed is 2.5.

Coastal Water Temperatures

Place Temperature

Stations

Nearby Weather Stations

Station Location Temp. Windchill Dew Point Humidity Wind Precip. Elev Updated Type
                   

Watches & Warnings

There are currently no watches in effect.